Time;durP1;ratioP1;P1;durP2;ratioP2;P2;SDS_P1;SDS_P2;PMS_P1;PMS_P2;Temp;Humidity;BMP_temperature;BMP_pressure;BME280_temperature;BME280_humidity;BME280_pressure;Samples;Min_cycle;Max_cycle;Signal;HPM_P1;HPM_P2
2021/03/29 00:00:23;;;;;;;0.50;0.40;;;10.90;99.90;;;;;;5029192;28;20205;-79
2021/03/29 00:02:50;;;;;;;0.50;0.40;;;10.90;99.90;;;;;;5028632;28;20201;-78
2021/03/29 00:05:18;;;;;;;2.65;1.67;;;10.80;99.90;;;;;;5028812;28;20212;-77
2021/03/29 00:07:49;;;;;;;0.50;0.40;;;10.90;99.90;;;;;;5043326;28;20233;-79
2021/03/29 00:10:18;;;;;;;0.50;0.40;;;10.80;99.90;;;;;;5050296;28;20199;-80
2021/03/29 00:12:47;;;;;;;7.97;1.00;;;10.80;99.90;;;;;;5048383;28;20234;-80
2021/03/29 00:15:17;;;;;;;1.85;1.73;;;10.80;99.90;;;;;;5049588;28;20196;-79
2021/03/29 00:17:45;;;;;;;0.50;0.40;;;10.80;99.90;;;;;;5047797;28;20234;-79
2021/03/29 00:20:14;;;;;;;0.50;0.40;;;10.80;99.90;;;;;;5049644;28;20199;-79
2021/03/29 00:22:41;;;;;;;0.50;0.40;;;10.80;99.90;;;;;;5047252;28;20197;-78
2021/03/29 00:25:10;;;;;;;7.82;1.63;;;10.80;99.90;;;;;;5030767;28;20227;-80
2021/03/29 00:27:37;;;;;;;0.82;0.82;;;10.80;99.90;;;;;;5046808;28;20230;-79
2021/03/29 00:30:07;;;;;;;12.75;0.95;;;10.80;99.90;;;;;;5047799;28;20200;-78
2021/03/29 00:32:34;;;;;;;10.63;0.85;;;10.80;99.90;;;;;;5048076;28;20215;-80
2021/03/29 00:35:01;;;;;;;2.33;1.38;;;10.80;99.90;;;;;;5047851;28;20222;-79
2021/03/29 00:37:28;;;;;;;1.48;1.25;;;10.80;99.90;;;;;;5045873;28;20216;-79
2021/03/29 00:39:55;;;;;;;0.60;0.50;;;10.80;99.90;;;;;;5045030;28;20203;-80
2021/03/29 00:42:22;;;;;;;0.63;0.63;;;10.80;99.90;;;;;;5047960;28;20550;-79
2021/03/29 00:44:49;;;;;;;0.65;0.65;;;10.80;99.90;;;;;;5047027;28;20196;-77
2021/03/29 00:47:16;;;;;;;0.80;0.80;;;10.90;99.90;;;;;;5045960;28;20225;-79
2021/03/29 00:49:42;;;;;;;1.15;0.88;;;10.80;99.90;;;;;;5046193;28;20200;-77
2021/03/29 00:52:09;;;;;;;3.25;0.88;;;10.80;99.90;;;;;;5046883;28;20193;-80
2021/03/29 00:54:37;;;;;;;2.25;1.20;;;10.80;99.90;;;;;;5047103;28;20446;-78
2021/03/29 00:57:05;;;;;;;1.02;1.02;;;10.80;99.90;;;;;;5045334;28;20249;-80
2021/03/29 00:59:31;;;;;;;0.70;0.70;;;10.70;99.90;;;;;;5046847;28;20207;-79
2021/03/29 01:01:59;;;;;;;1.30;0.75;;;10.70;99.90;;;;;;5046070;28;20200;-79
2021/03/29 01:04:27;;;;;;;0.60;0.57;;;10.70;99.90;;;;;;5046490;28;20208;-79
2021/03/29 01:06:54;;;;;;;0.50;0.47;;;10.70;99.90;;;;;;5045636;28;20220;-79
2021/03/29 01:09:24;;;;;;;3.42;0.90;;;10.70;99.90;;;;;;5046285;28;20194;-79
2021/03/29 01:11:53;;;;;;;1.80;1.42;;;10.70;99.90;;;;;;5045643;28;20220;-79
2021/03/29 01:14:24;;;;;;;0.50;0.50;;;10.70;99.90;;;;;;5046738;28;20627;-79
2021/03/29 01:16:57;;;;;;;0.50;0.40;;;10.70;99.90;;;;;;5045796;28;20237;-79
2021/03/29 01:19:41;;;;;;;0.50;0.50;;;10.60;99.90;;;;;;5046254;28;20200;-79
2021/03/29 01:22:09;;;;;;;8.93;2.05;;;10.60;99.90;;;;;;5045544;28;20545;-77
2021/03/29 01:24:46;;;;;;;1.05;1.02;;;10.60;99.90;;;;;;5046850;28;20209;-80
2021/03/29 01:27:15;;;;;;;5.22;2.85;;;10.60;99.90;;;;;;5045269;28;20269;-79
2021/03/29 01:29:42;;;;;;;0.60;0.60;;;10.60;99.90;;;;;;5044108;28;20223;-77
2021/03/29 01:32:10;;;;;;;0.50;0.40;;;10.50;99.90;;;;;;5047306;28;20204;-79
2021/03/29 01:34:39;;;;;;;1.73;1.08;;;10.50;99.90;;;;;;5047231;28;20205;-78
2021/03/29 01:37:06;;;;;;;0.50;0.50;;;10.50;99.90;;;;;;5044403;28;20228;-79
2021/03/29 01:39:34;;;;;;;0.50;0.40;;;10.50;99.90;;;;;;5047422;28;20206;-78
2021/03/29 01:42:01;;;;;;;0.50;0.40;;;10.50;99.90;;;;;;5044354;28;20203;-79
2021/03/29 01:44:29;;;;;;;1.52;1.42;;;10.50;99.90;;;;;;5045845;28;20291;-79
2021/03/29 01:46:56;;;;;;;1.10;0.88;;;10.40;99.90;;;;;;5044865;28;20243;-79
2021/03/29 01:49:23;;;;;;;0.80;0.73;;;10.40;99.90;;;;;;5046078;28;20195;-79
2021/03/29 01:51:51;;;;;;;0.77;0.77;;;10.40;99.90;;;;;;5045069;28;20195;-77
2021/03/29 01:54:18;;;;;;;2.00;1.02;;;10.40;99.90;;;;;;5046394;28;20222;-80
2021/03/29 01:56:45;;;;;;;0.80;0.80;;;10.40;99.90;;;;;;5044395;28;20231;-79
2021/03/29 01:59:12;;;;;;;3.03;1.38;;;10.40;99.90;;;;;;5046078;28;20191;-78
2021/03/29 02:01:39;;;;;;;1.48;1.48;;;10.40;99.90;;;;;;5045788;28;20209;-78
2021/03/29 02:04:06;;;;;;;2.55;2.35;;;10.40;99.90;;;;;;5045274;28;20203;-79
2021/03/29 02:06:34;;;;;;;1.20;1.10;;;10.30;99.90;;;;;;5043378;28;20223;-79
2021/03/29 02:09:01;;;;;;;0.60;0.60;;;10.30;99.90;;;;;;5045113;28;20872;-78
2021/03/29 02:11:29;;;;;;;0.90;0.80;;;10.30;99.90;;;;;;5045869;28;20203;-78
2021/03/29 02:13:56;;;;;;;1.42;1.10;;;10.20;99.90;;;;;;5044983;28;20222;-78
2021/03/29 02:16:23;;;;;;;10.70;2.53;;;10.20;99.90;;;;;;5043841;28;20227;-78
2021/03/29 02:18:53;;;;;;;1.73;1.05;;;10.30;99.90;;;;;;5027705;28;20206;-78
2021/03/29 02:21:22;;;;;;;1.27;1.05;;;10.30;99.90;;;;;;5046890;28;20230;-78
2021/03/29 02:23:51;;;;;;;1.33;0.70;;;10.30;99.90;;;;;;5045811;28;20199;-76
2021/03/29 02:26:19;;;;;;;0.60;0.50;;;10.30;99.90;;;;;;5045823;28;20231;-78
2021/03/29 02:28:47;;;;;;;0.88;0.80;;;10.30;99.90;;;;;;5045342;28;20207;-79
2021/03/29 02:31:14;;;;;;;0.90;0.73;;;10.30;99.90;;;;;;5046299;28;20206;-78
2021/03/29 02:33:41;;;;;;;1.02;1.02;;;10.20;99.90;;;;;;5046055;28;20282;-79
2021/03/29 02:36:10;;;;;;;0.70;0.70;;;10.20;99.90;;;;;;5044209;28;20337;-79
2021/03/29 02:38:37;;;;;;;1.63;1.20;;;10.20;99.90;;;;;;5045835;28;20196;-78
2021/03/29 02:41:04;;;;;;;1.70;1.60;;;10.20;99.90;;;;;;5043107;28;20290;-79
2021/03/29 02:43:31;;;;;;;0.93;0.77;;;10.20;99.90;;;;;;5046687;28;20202;-79
2021/03/29 02:46:01;;;;;;;0.50;0.40;;;10.10;99.90;;;;;;5044413;28;20242;-78
2021/03/29 02:48:33;;;;;;;1.25;1.13;;;10.10;99.90;;;;;;5045714;28;20196;-78
2021/03/29 02:51:02;;;;;;;0.63;0.50;;;10.10;99.90;;;;;;5036518;28;20187;-78
2021/03/29 02:53:32;;;;;;;1.05;0.50;;;10.10;99.90;;;;;;5036323;28;20199;-79
2021/03/29 02:56:01;;;;;;;6.38;0.70;;;10.00;99.90;;;;;;5035814;28;20211;-78
2021/03/29 02:58:29;;;;;;;0.70;0.60;;;10.00;99.90;;;;;;5036593;28;20225;-78
2021/03/29 03:00:56;;;;;;;0.50;0.40;;;10.00;99.90;;;;;;5037430;28;20282;-79
2021/03/29 03:03:23;;;;;;;0.50;0.50;;;9.90;99.90;;;;;;5037386;28;20199;-79
2021/03/29 03:05:51;;;;;;;2.45;2.35;;;10.00;99.90;;;;;;5036539;28;20205;-77
2021/03/29 03:08:18;;;;;;;1.40;1.30;;;10.00;99.90;;;;;;5037635;28;20207;-79
2021/03/29 03:10:45;;;;;;;0.65;0.60;;;10.00;99.90;;;;;;5038092;28;20197;-77
2021/03/29 03:13:13;;;;;;;1.70;1.60;;;10.00;99.90;;;;;;5038593;28;20468;-78
2021/03/29 03:15:40;;;;;;;0.90;0.90;;;10.00;99.90;;;;;;5038749;28;20214;-79
2021/03/29 03:18:11;;;;;;;1.60;1.20;;;10.00;99.90;;;;;;5038660;28;20215;-78
2021/03/29 03:20:39;;;;;;;1.83;1.20;;;10.00;99.90;;;;;;5039282;28;20207;-78
2021/03/29 03:23:13;;;;;;;1.80;1.35;;;9.90;99.90;;;;;;5039414;28;20192;-78
2021/03/29 03:25:42;;;;;;;0.60;0.50;;;9.90;99.90;;;;;;5038885;28;20203;-78
2021/03/29 03:28:11;;;;;;;7.32;4.03;;;9.90;99.90;;;;;;5038878;28;20226;-77
2021/03/29 03:30:39;;;;;;;0.50;0.50;;;9.90;99.90;;;;;;5022321;28;20197;-77
2021/03/29 03:33:07;;;;;;;1.75;1.38;;;9.90;99.90;;;;;;5043358;28;20278;-78
2021/03/29 03:35:36;;;;;;;1.90;1.52;;;9.90;99.90;;;;;;5039598;28;20201;-77
2021/03/29 03:38:07;;;;;;;1.23;1.13;;;10.00;99.90;;;;;;5045641;28;20203;-79
2021/03/29 03:40:35;;;;;;;7.10;2.65;;;10.00;99.90;;;;;;5045083;28;20177;-78
2021/03/29 03:43:05;;;;;;;0.68;0.68;;;10.00;99.90;;;;;;5050683;28;20218;-78
2021/03/29 03:45:35;;;;;;;2.80;1.25;;;10.00;99.90;;;;;;5050580;28;20206;-79
2021/03/29 03:48:02;;;;;;;1.63;1.52;;;10.00;99.90;;;;;;5049370;28;20291;-80
2021/03/29 03:50:29;;;;;;;3.40;1.23;;;10.00;99.90;;;;;;5049429;28;20204;-78
2021/03/29 03:52:55;;;;;;;1.92;1.83;;;10.00;99.90;;;;;;5048299;28;20222;-79
2021/03/29 03:55:24;;;;;;;4.22;1.67;;;10.00;99.90;;;;;;5047244;28;20203;-79
2021/03/29 03:57:51;;;;;;;5.45;1.52;;;10.00;99.90;;;;;;5046561;28;20247;-79
2021/03/29 04:00:19;;;;;;;13.60;1.25;;;10.00;99.90;;;;;;5042774;28;20206;-79
2021/03/29 04:02:49;;;;;;;0.70;0.70;;;10.10;99.90;;;;;;5040061;28;20199;-79
2021/03/29 04:05:17;;;;;;;0.50;0.40;;;10.10;99.90;;;;;;5044259;28;20199;-79
2021/03/29 04:07:45;;;;;;;1.02;0.88;;;10.10;99.90;;;;;;5037831;28;20218;-77
2021/03/29 04:10:14;;;;;;;2.67;1.50;;;10.10;99.90;;;;;;5041751;28;20199;-78
2021/03/29 04:12:43;;;;;;;2.97;1.55;;;10.00;99.90;;;;;;5042182;28;20242;-80
2021/03/29 04:15:10;;;;;;;0.73;0.73;;;10.10;99.90;;;;;;5042601;28;20199;-79
2021/03/29 04:17:36;;;;;;;1.05;0.88;;;10.00;99.90;;;;;;5041061;28;20220;-79
2021/03/29 04:20:05;;;;;;;2.15;0.88;;;10.00;99.90;;;;;;5041988;28;20200;-79
2021/03/29 04:22:32;;;;;;;6.28;2.15;;;10.10;99.90;;;;;;5043080;28;20196;-79
2021/03/29 04:24:58;;;;;;;1.25;1.15;;;10.10;99.90;;;;;;5042105;28;20196;-79
2021/03/29 04:27:25;;;;;;;1.85;1.75;;;10.10;99.90;;;;;;5047764;28;20219;-79
2021/03/29 04:29:51;;;;;;;1.58;0.88;;;10.10;99.90;;;;;;5048703;28;20223;-80
2021/03/29 04:32:17;;;;;;;4.00;0.85;;;10.10;99.90;;;;;;5049826;28;20199;-79
2021/03/29 04:34:44;;;;;;;0.85;0.85;;;10.10;99.90;;;;;;5049585;28;20192;-79
2021/03/29 04:37:11;;;;;;;3.17;1.52;;;10.10;99.90;;;;;;5048109;28;20232;-80
2021/03/29 04:39:37;;;;;;;0.70;0.70;;;10.00;99.90;;;;;;5048064;28;20191;-77
2021/03/29 04:42:04;;;;;;;1.40;1.30;;;10.00;99.90;;;;;;5045333;28;20203;-79
2021/03/29 04:44:31;;;;;;;3.45;1.75;;;10.10;99.90;;;;;;5041614;28;20282;-80
2021/03/29 04:46:57;;;;;;;0.90;0.88;;;10.10;99.90;;;;;;5042064;28;20585;-78
2021/03/29 04:49:23;;;;;;;1.88;1.17;;;10.00;99.90;;;;;;5042044;28;20260;-79
2021/03/29 04:51:51;;;;;;;0.60;0.50;;;10.00;99.90;;;;;;5041796;28;20194;-78
2021/03/29 04:54:19;;;;;;;0.50;0.50;;;10.00;99.90;;;;;;5041157;28;20198;-79
2021/03/29 04:56:45;;;;;;;0.82;0.50;;;10.00;99.90;;;;;;5041314;28;20212;-79
2021/03/29 04:59:11;;;;;;;0.80;0.80;;;10.00;99.90;;;;;;5041074;28;20197;-79
2021/03/29 05:01:38;;;;;;;2.05;1.00;;;10.00;99.90;;;;;;5043266;28;20208;-79
2021/03/29 05:04:05;;;;;;;0.93;0.93;;;10.00;99.90;;;;;;5041592;28;20345;-78
2021/03/29 05:06:31;;;;;;;0.70;0.60;;;9.90;99.90;;;;;;5034644;28;20237;-76
2021/03/29 05:08:57;;;;;;;0.70;0.70;;;9.90;99.90;;;;;;5022839;28;20201;-79
2021/03/29 05:11:25;;;;;;;0.50;0.40;;;9.90;99.90;;;;;;5037146;28;20196;-78
2021/03/29 05:13:51;;;;;;;0.60;0.55;;;9.90;99.90;;;;;;5036512;28;20197;-77
2021/03/29 05:16:18;;;;;;;2.58;1.48;;;9.90;99.90;;;;;;5036374;28;20292;-78
2021/03/29 05:18:44;;;;;;;1.65;1.30;;;9.90;99.90;;;;;;5036408;28;20565;-77
2021/03/29 05:21:10;;;;;;;0.60;0.50;;;9.90;99.90;;;;;;5035730;28;20197;-78
2021/03/29 05:23:36;;;;;;;1.80;1.70;;;9.90;99.90;;;;;;5037810;28;20267;-78
2021/03/29 05:26:03;;;;;;;2.05;1.58;;;9.90;99.90;;;;;;5036899;28;20212;-78
2021/03/29 05:28:30;;;;;;;0.63;0.63;;;9.90;99.90;;;;;;5037405;28;20212;-78
2021/03/29 05:30:56;;;;;;;3.00;1.77;;;9.90;99.90;;;;;;5038026;28;20262;-79
2021/03/29 05:33:22;;;;;;;0.70;0.70;;;9.90;99.90;;;;;;5036780;28;20212;-78
2021/03/29 05:35:48;;;;;;;2.03;1.23;;;9.90;99.90;;;;;;5033145;28;20272;-79
2021/03/29 05:38:15;;;;;;;0.93;0.90;;;9.90;99.90;;;;;;5034137;28;20604;-78
2021/03/29 05:40:41;;;;;;;0.98;0.98;;;10.00;99.90;;;;;;5035155;28;20201;-77
2021/03/29 05:43:08;;;;;;;3.45;2.55;;;10.00;99.90;;;;;;5037737;28;20287;-79
2021/03/29 05:45:42;;;;;;;1.50;1.20;;;10.10;99.90;;;;;;5037585;28;20258;-77
2021/03/29 05:48:09;;;;;;;0.50;0.40;;;10.20;99.90;;;;;;5034632;28;20231;-78
2021/03/29 05:50:36;;;;;;;4.75;0.90;;;10.30;99.90;;;;;;5039481;28;20677;-77
2021/03/29 05:53:02;;;;;;;4.90;1.40;;;10.30;99.90;;;;;;5035250;28;20204;-77
2021/03/29 05:55:34;;;;;;;1.83;1.65;;;10.20;99.90;;;;;;5034729;28;20199;-77
2021/03/29 05:58:19;;;;;;;13.18;2.35;;;10.20;99.90;;;;;;5037595;28;20232;-78
2021/03/29 06:00:46;;;;;;;2.45;2.25;;;10.40;99.90;;;;;;5034689;28;20268;-77
2021/03/29 06:03:21;;;;;;;2.03;1.05;;;10.80;99.90;;;;;;5036163;28;20200;-78
2021/03/29 06:05:47;;;;;;;1.42;1.33;;;11.30;99.90;;;;;;5034755;28;20668;-76
2021/03/29 06:08:16;;;;;;;1.77;0.73;;;11.60;99.90;;;;;;5032517;28;20584;-77
2021/03/29 06:10:44;;;;;;;1.05;0.80;;;11.80;99.90;;;;;;5034618;28;20572;-78
2021/03/29 06:13:15;;;;;;;5.18;0.80;;;11.80;99.90;;;;;;5037500;28;20237;-78
2021/03/29 06:15:41;;;;;;;1.45;1.13;;;11.50;99.90;;;;;;5034353;28;20219;-78
2021/03/29 06:18:13;;;;;;;0.70;0.70;;;11.50;99.90;;;;;;5034685;28;20190;-78
2021/03/29 06:21:05;;;;;;;0.50;0.40;;;11.70;99.90;;;;;;5038027;28;20261;-79
2021/03/29 06:23:32;;;;;;;0.52;0.47;;;11.90;99.90;;;;;;5034430;28;20519;-77
2021/03/29 06:26:21;;;;;;;2.65;1.67;;;11.90;99.90;;;;;;5033663;28;20195;-77
2021/03/29 06:28:48;;;;;;;7.85;1.77;;;12.60;99.90;;;;;;5034338;28;20205;-77
2021/03/29 06:31:22;;;;;;;0.90;0.75;;;13.40;99.90;;;;;;5034773;28;20204;-77
2021/03/29 06:33:50;;;;;;;4.72;1.38;;;13.70;99.90;;;;;;5033472;28;20210;-76
2021/03/29 06:36:33;;;;;;;0.50;0.40;;;13.80;99.90;;;;;;5032413;28;20234;-77
2021/03/29 06:39:14;;;;;;;0.70;0.70;;;14.30;99.90;;;;;;5033957;28;20214;-78
2021/03/29 06:41:42;;;;;;;0.50;0.40;;;14.90;99.90;;;;;;5032514;28;20195;-77
2021/03/29 06:44:22;;;;;;;0.75;0.75;;;14.90;99.90;;;;;;5034986;28;20198;-77
2021/03/29 06:46:49;;;;;;;1.20;1.10;;;15.30;99.90;;;;;;5033542;28;20231;-77
2021/03/29 06:49:16;;;;;;;1.77;0.60;;;15.50;99.90;;;;;;5034024;28;20206;-77
2021/03/29 06:51:42;;;;;;;1.73;0.90;;;15.50;99.90;;;;;;5034393;28;20253;-77
2021/03/29 06:54:11;;;;;;;2.97;1.23;;;15.60;99.90;;;;;;5034475;28;20661;-78
2021/03/29 06:56:39;;;;;;;1.98;1.35;;;15.50;99.90;;;;;;5033076;28;20212;-77
2021/03/29 06:59:14;;;;;;;0.50;0.40;;;15.50;99.90;;;;;;5034209;28;20223;-78
2021/03/29 07:01:48;;;;;;;1.35;0.82;;;15.40;99.90;;;;;;5034586;28;20450;-77
2021/03/29 07:04:14;;;;;;;0.90;0.70;;;15.70;99.90;;;;;;5034945;28;20640;-78
2021/03/29 07:06:43;;;;;;;1.43;0.80;;;15.40;99.90;;;;;;5033234;28;20279;-77
2021/03/29 07:09:10;;;;;;;8.52;2.40;;;15.50;99.90;;;;;;5034307;28;20442;-77
2021/03/29 07:11:39;;;;;;;1.10;1.10;;;15.20;99.90;;;;;;5034772;28;20204;-78
2021/03/29 07:14:07;;;;;;;3.05;1.10;;;15.20;99.90;;;;;;5033840;28;20677;-78
2021/03/29 07:16:34;;;;;;;3.30;0.60;;;15.40;99.90;;;;;;5033920;28;20241;-78
2021/03/29 07:19:01;;;;;;;0.65;0.60;;;15.40;99.90;;;;;;5034297;28;20555;-79
2021/03/29 07:21:29;;;;;;;0.98;0.88;;;15.50;99.90;;;;;;5035442;28;20220;-78
2021/03/29 07:24:04;;;;;;;2.10;1.53;;;15.40;99.90;;;;;;5036944;28;20210;-79
2021/03/29 07:26:38;;;;;;;1.05;0.95;;;15.10;99.90;;;;;;5035365;28;20525;-78
2021/03/29 07:29:18;;;;;;;9.48;1.05;;;15.00;99.90;;;;;;5038771;28;20544;-78
2021/03/29 07:31:46;;;;;;;3.05;1.00;;;14.90;99.90;;;;;;5039396;28;20202;-76
2021/03/29 07:34:13;;;;;;;0.63;0.60;;;14.70;99.90;;;;;;5038566;28;20203;-78
2021/03/29 07:36:42;;;;;;;2.38;1.25;;;14.50;99.90;;;;;;5040962;28;20223;-78
2021/03/29 07:39:10;;;;;;;1.45;1.35;;;14.10;99.90;;;;;;5038039;28;20203;-77
2021/03/29 07:41:37;;;;;;;2.25;1.27;;;14.00;99.90;;;;;;5038756;28;20227;-77
2021/03/29 07:44:12;;;;;;;7.03;2.25;;;13.70;99.90;;;;;;5037815;28;20624;-77
2021/03/29 07:46:40;;;;;;;0.50;0.43;;;13.60;99.90;;;;;;5036088;28;20219;-77
2021/03/29 07:49:42;;;;;;;0.50;0.50;;;13.60;99.90;;;;;;5037353;28;20199;-78
2021/03/29 07:52:29;;;;;;;0.85;0.70;;;13.80;99.90;;;;;;5031973;28;20194;-77
2021/03/29 07:54:58;;;;;;;2.72;1.90;;;13.70;99.90;;;;;;5040640;28;20283;-79
2021/03/29 07:58:04;;;;;;;1.10;1.00;;;13.50;99.90;;;;;;5039303;28;20211;-77
2021/03/29 08:00:56;;;;;;;0.63;0.57;;;13.50;99.90;;;;;;5031689;28;20206;-78
2021/03/29 08:03:43;;;;;;;5.45;2.55;;;13.50;99.90;;;;;;5037996;28;20199;-78
2021/03/29 08:06:37;;;;;;;1.92;1.52;;;13.50;99.90;;;;;;5036387;28;20521;-79
2021/03/29 08:09:04;;;;;;;1.58;1.48;;;13.60;99.90;;;;;;5037168;28;20846;-78
2021/03/29 08:11:57;;;;;;;0.50;0.40;;;13.70;99.90;;;;;;5040600;28;20218;-77
2021/03/29 08:14:31;;;;;;;1.55;0.63;;;13.80;99.90;;;;;;5040486;28;20199;-78
2021/03/29 08:16:58;;;;;;;0.80;0.75;;;14.20;99.90;;;;;;5039958;28;20739;-78
2021/03/29 08:19:25;;;;;;;3.72;2.25;;;14.40;99.90;;;;;;5041892;28;20203;-80
2021/03/29 08:21:54;;;;;;;9.52;1.30;;;14.50;99.90;;;;;;5045008;28;20198;-77
2021/03/29 08:24:29;;;;;;;2.17;0.95;;;14.70;99.90;;;;;;5049903;28;20200;-79
2021/03/29 08:26:59;;;;;;;1.75;1.65;;;15.00;99.90;;;;;;5042814;28;20269;-78
2021/03/29 08:29:33;;;;;;;0.70;0.70;;;15.30;99.90;;;;;;5042673;28;20199;-78
2021/03/29 08:32:28;;;;;;;6.13;1.30;;;15.30;99.90;;;;;;5040866;28;20223;-78
2021/03/29 08:35:03;;;;;;;1.13;0.93;;;15.10;99.90;;;;;;5043956;28;20190;-79
2021/03/29 08:37:34;;;;;;;4.75;1.40;;;15.10;99.90;;;;;;5050430;28;20830;-80
2021/03/29 08:40:09;;;;;;;2.40;1.17;;;15.00;99.90;;;;;;5040830;28;20253;-79
2021/03/29 08:42:37;;;;;;;2.25;1.10;;;14.90;99.90;;;;;;5041452;28;20472;-77
2021/03/29 08:45:06;;;;;;;0.80;0.80;;;15.00;99.90;;;;;;5038206;28;20199;-78
2021/03/29 08:47:33;;;;;;;0.60;0.55;;;15.10;99.90;;;;;;5038554;28;20478;-78
2021/03/29 08:50:02;;;;;;;3.70;1.67;;;14.80;99.90;;;;;;5037589;28;20195;-78
2021/03/29 08:52:43;;;;;;;3.03;1.65;;;14.70;99.90;;;;;;5036488;28;20657;-78
2021/03/29 08:55:16;;;;;;;1.07;0.70;;;14.70;99.90;;;;;;5035406;28;20214;-77
2021/03/29 08:57:45;;;;;;;3.05;1.55;;;15.10;99.90;;;;;;5036215;28;20473;-79
2021/03/29 09:00:17;;;;;;;6.93;0.87;;;15.20;99.90;;;;;;5040981;28;20281;-77
2021/03/29 09:02:44;;;;;;;4.83;1.53;;;15.80;99.90;;;;;;5042391;28;20445;-77
2021/03/29 09:05:12;;;;;;;1.07;0.80;;;16.20;99.90;;;;;;5043889;28;20446;-77
2021/03/29 09:07:45;;;;;;;1.03;1.03;;;16.20;99.90;;;;;;5040782;28;20504;-79
2021/03/29 09:10:20;;;;;;;1.03;0.93;;;15.90;99.90;;;;;;5041250;28;20449;-77
2021/03/29 09:12:54;;;;;;;2.30;1.90;;;15.80;99.90;;;;;;5038383;28;20511;-76
2021/03/29 09:15:21;;;;;;;1.43;0.57;;;16.00;99.90;;;;;;5035961;28;20457;-77
2021/03/29 09:17:55;;;;;;;1.63;1.53;;;17.00;99.90;;;;;;5035953;28;20808;-79
2021/03/29 09:20:23;;;;;;;2.67;0.60;;;17.20;99.90;;;;;;5037895;28;20447;-79
2021/03/29 09:22:50;;;;;;;1.20;1.10;;;17.50;99.90;;;;;;5038532;28;20961;-78
2021/03/29 09:25:23;;;;;;;0.80;0.70;;;17.70;99.90;;;;;;5036327;28;20796;-77
2021/03/29 09:28:18;;;;;;;6.43;1.80;;;18.50;99.90;;;;;;5036482;28;20483;-77
2021/03/29 09:30:49;;;;;;;0.80;0.70;;;19.20;99.90;;;;;;5039969;28;20513;-79
2021/03/29 09:33:16;;;;;;;2.70;0.70;;;18.40;99.90;;;;;;5037418;28;20442;-78
2021/03/29 09:35:43;;;;;;;1.17;0.40;;;18.40;99.90;;;;;;5034159;28;20474;-77
2021/03/29 09:38:10;;;;;;;1.97;1.30;;;18.50;99.90;;;;;;5033907;28;20807;-78
2021/03/29 09:40:37;;;;;;;4.87;1.47;;;18.10;98.50;;;;;;5036031;28;20474;-78
2021/03/29 09:43:04;;;;;;;3.37;0.80;;;17.80;99.30;;;;;;5035363;28;20438;-79
2021/03/29 09:45:34;;;;;;;0.70;0.50;;;18.80;98.10;;;;;;5035569;28;20506;-78
2021/03/29 09:48:06;;;;;;;2.30;1.77;;;19.30;94.80;;;;;;5034334;28;20503;-78
2021/03/29 09:50:34;;;;;;;0.90;0.60;;;19.60;93.50;;;;;;5035146;28;20935;-78
2021/03/29 09:53:12;;;;;;;0.70;0.40;;;19.50;93.20;;;;;;5034927;28;20437;-78
2021/03/29 09:55:44;;;;;;;1.83;1.13;;;19.90;92.50;;;;;;5035319;28;20551;-77
2021/03/29 09:58:21;;;;;;;3.67;1.67;;;19.60;90.70;;;;;;5035440;28;20429;-77
2021/03/29 10:00:49;;;;;;;1.93;1.57;;;19.30;90.40;;;;;;5035148;28;20457;-75
2021/03/29 10:03:17;;;;;;;0.50;0.50;;;19.30;89.40;;;;;;5035453;28;20500;-78
2021/03/29 10:05:44;;;;;;;1.57;1.43;;;20.10;88.60;;;;;;5035688;28;20452;-77
2021/03/29 10:08:11;;;;;;;1.07;0.70;;;20.00;85.10;;;;;;5034762;28;20513;-78
2021/03/29 10:10:37;;;;;;;2.77;0.97;;;20.10;84.70;;;;;;5035577;28;20770;-78
2021/03/29 10:13:05;;;;;;;1.83;1.07;;;20.20;81.70;;;;;;5035358;28;20442;-77
2021/03/29 10:15:33;;;;;;;1.30;1.20;;;20.50;77.30;;;;;;5035548;28;20460;-78
2021/03/29 10:18:12;;;;;;;2.43;1.97;;;20.30;75.40;;;;;;5034830;28;20480;-78
2021/03/29 10:20:40;;;;;;;0.80;0.70;;;20.10;73.90;;;;;;5034869;28;20936;-78
2021/03/29 10:23:26;;;;;;;0.60;0.50;;;20.50;72.70;;;;;;5034935;28;20442;-78
2021/03/29 10:26:16;;;;;;;1.03;1.03;;;21.00;68.60;;;;;;5034839;28;20458;-78
2021/03/29 10:28:59;;;;;;;1.07;0.60;;;20.60;66.60;;;;;;5035559;28;20497;-77
2021/03/29 10:31:26;;;;;;;2.40;0.80;;;20.70;68.00;;;;;;5035203;28;20426;-78
2021/03/29 10:33:54;;;;;;;2.20;0.80;;;21.50;67.00;;;;;;5034522;28;20434;-77
2021/03/29 10:36:21;;;;;;;0.70;0.70;;;21.00;63.90;;;;;;5033894;28;20560;-77
2021/03/29 10:38:48;;;;;;;6.10;1.60;;;20.70;63.60;;;;;;5035175;28;20989;-78
2021/03/29 10:41:15;;;;;;;0.50;0.40;;;20.70;62.00;;;;;;5033691;28;20468;-78
2021/03/29 10:43:41;;;;;;;1.37;0.80;;;21.00;63.00;;;;;;5035394;28;20444;-78
2021/03/29 10:46:08;;;;;;;0.60;0.50;;;21.60;61.10;;;;;;5034786;28;20484;-78
2021/03/29 10:48:35;;;;;;;1.03;0.90;;;21.80;60.40;;;;;;5035982;28;20478;-78
2021/03/29 10:51:05;;;;;;;2.70;2.43;;;22.50;59.30;;;;;;5036065;28;20970;-78
2021/03/29 10:53:31;;;;;;;0.60;0.60;;;22.70;56.70;;;;;;5036160;28;20450;-78
2021/03/29 10:55:58;;;;;;;2.20;1.33;;;23.00;56.50;;;;;;5034917;28;20460;-78
2021/03/29 10:58:24;;;;;;;1.87;0.90;;;23.20;55.50;;;;;;5036259;28;20473;-78
2021/03/29 11:00:51;;;;;;;1.90;1.43;;;23.40;55.60;;;;;;5037603;28;20441;-77
2021/03/29 11:03:19;;;;;;;0.77;0.70;;;22.40;54.20;;;;;;5038381;28;20454;-77
2021/03/29 11:05:45;;;;;;;0.50;0.40;;;21.70;55.40;;;;;;5039674;28;20448;-76
2021/03/29 11:08:12;;;;;;;1.37;1.23;;;22.70;56.10;;;;;;5043272;28;20438;-78
2021/03/29 11:10:39;;;;;;;0.70;0.70;;;22.20;54.20;;;;;;5040374;28;20448;-77
2021/03/29 11:13:05;;;;;;;0.70;0.40;;;22.20;54.20;;;;;;5040687;28;20986;-79
2021/03/29 11:15:33;;;;;;;0.53;0.37;;;22.60;52.50;;;;;;5040678;28;20441;-78
2021/03/29 11:18:01;;;;;;;0.63;0.63;;;23.40;53.20;;;;;;5039923;28;20473;-78
2021/03/29 11:20:27;;;;;;;0.60;0.57;;;23.50;52.20;;;;;;5041559;28;20445;-78
2021/03/29 11:22:53;;;;;;;0.50;0.30;;;22.90;51.40;;;;;;5039712;28;20444;-77
2021/03/29 11:25:20;;;;;;;3.60;1.30;;;23.00;53.00;;;;;;5041337;28;20549;-78
2021/03/29 11:27:47;;;;;;;1.20;1.10;;;23.00;52.00;;;;;;5039060;28;20456;-78
2021/03/29 11:30:15;;;;;;;0.63;0.50;;;22.70;50.80;;;;;;5041133;28;20440;-78
2021/03/29 11:32:43;;;;;;;2.30;1.47;;;22.30;51.50;;;;;;5040207;28;20549;-78
2021/03/29 11:35:11;;;;;;;1.00;0.50;;;22.10;51.50;;;;;;5041019;28;20448;-78
2021/03/29 11:37:37;;;;;;;0.50;0.40;;;22.40;52.40;;;;;;5038202;28;20492;-78
2021/03/29 11:40:05;;;;;;;3.70;1.00;;;22.10;51.80;;;;;;5038161;28;20796;-78
2021/03/29 11:42:32;;;;;;;1.23;1.03;;;22.90;52.50;;;;;;5040620;28;20506;-78
2021/03/29 11:44:58;;;;;;;2.43;2.23;;;22.40;51.40;;;;;;5038806;28;20541;-79
2021/03/29 11:47:24;;;;;;;1.17;0.50;;;22.70;52.20;;;;;;5038806;28;20994;-78
2021/03/29 11:49:50;;;;;;;0.53;0.50;;;23.00;52.00;;;;;;5040031;28;20430;-78
2021/03/29 11:52:17;;;;;;;0.80;0.67;;;23.00;51.40;;;;;;5038906;28;20939;-77
2021/03/29 11:54:43;;;;;;;0.80;0.80;;;23.30;52.10;;;;;;5039359;28;20443;-77
2021/03/29 11:57:10;;;;;;;1.80;0.93;;;23.50;50.80;;;;;;5038718;28;20558;-78
2021/03/29 11:59:43;;;;;;;6.30;1.03;;;23.20;51.00;;;;;;5039494;28;20442;-77
2021/03/29 12:02:13;;;;;;;0.77;0.60;;;22.70;49.60;;;;;;5038476;28;20430;-78
2021/03/29 12:04:43;;;;;;;1.07;1.07;;;22.80;50.50;;;;;;5040017;28;20473;-78
2021/03/29 12:07:14;;;;;;;1.37;0.80;;;22.90;49.70;;;;;;5037884;28;20515;-78
2021/03/29 12:09:47;;;;;;;0.67;0.60;;;23.10;50.20;;;;;;5039845;28;20438;-78
2021/03/29 12:12:13;;;;;;;0.93;0.60;;;23.10;49.40;;;;;;5039515;28;20929;-78
2021/03/29 12:14:41;;;;;;;0.60;0.40;;;23.40;49.40;;;;;;5037797;28;20454;-78
2021/03/29 12:17:13;;;;;;;2.77;1.60;;;23.70;50.10;;;;;;5040454;28;20219;-79
2021/03/29 12:19:42;;;;;;;0.60;0.60;;;23.90;49.00;;;;;;5040104;28;20484;-78
2021/03/29 12:22:11;;;;;;;1.27;1.17;;;24.60;49.10;;;;;;5039144;28;20854;-78
2021/03/29 12:24:41;;;;;;;4.87;0.70;;;25.20;48.00;;;;;;5037093;28;20511;-77
2021/03/29 12:27:08;;;;;;;0.63;0.47;;;25.60;48.00;;;;;;5034411;28;20450;-78
2021/03/29 12:29:37;;;;;;;2.60;1.00;;;25.80;47.00;;;;;;5035442;28;20784;-78
2021/03/29 12:32:06;;;;;;;0.60;0.60;;;25.20;46.60;;;;;;5035441;28;20442;-78
2021/03/29 12:34:34;;;;;;;2.10;1.13;;;24.10;47.60;;;;;;5035749;28;20454;-78
2021/03/29 12:37:02;;;;;;;0.80;0.50;;;23.40;48.30;;;;;;5033861;28;20516;-77
2021/03/29 12:39:34;;;;;;;0.60;0.40;;;23.90;48.90;;;;;;5034676;28;20816;-78
2021/03/29 12:42:02;;;;;;;1.97;0.93;;;24.70;49.00;;;;;;5034925;28;20469;-78
2021/03/29 12:44:28;;;;;;;1.63;1.20;;;25.00;48.10;;;;;;5035376;28;20523;-77
2021/03/29 12:46:59;;;;;;;2.37;1.77;;;23.90;48.30;;;;;;5035059;28;20453;-76
2021/03/29 12:49:27;;;;;;;1.00;1.00;;;23.50;48.50;;;;;;5036028;28;20949;-76
2021/03/29 12:51:59;;;;;;;0.50;0.40;;;24.10;49.00;;;;;;5035904;28;20445;-77
2021/03/29 12:54:27;;;;;;;1.53;1.43;;;24.70;48.50;;;;;;5036424;28;20438;-79
2021/03/29 12:56:54;;;;;;;0.70;0.70;;;25.20;48.30;;;;;;5036568;28;20470;-77
2021/03/29 12:59:22;;;;;;;0.50;0.43;;;25.20;46.60;;;;;;5036839;28;20442;-78